Time;durP1;ratioP1;P1;durP2;ratioP2;P2;SDS_P1;SDS_P2;PMS_P1;PMS_P2;Temp;Humidity;BMP_temperature;BMP_pressure;BME280_temperature;BME280_humidity;BME280_pressure;Samples;Min_cycle;Max_cycle;Signal;HPM_P1;HPM_P2
2023/07/06 00:02:20;;;;;;;;;;;;;;;23.35;32.13;101439.66;5057661;28;20024;-87
2023/07/06 00:04:46;;;;;;;;;;;;;;;23.33;32.24;101439.94;5060071;28;19960;-88
2023/07/06 00:07:12;;;;;;;;;;;;;;;23.30;32.50;101437.06;5056660;28;20099;-88
2023/07/06 00:09:38;;;;;;;;;;;;;;;23.26;32.39;101433.34;5061431;28;21418;-87
2023/07/06 00:12:04;;;;;;;;;;;;;;;23.23;32.25;101437.53;5059708;28;19960;-87
2023/07/06 00:14:29;;;;;;;;;;;;;;;23.21;32.20;101446.03;5058871;28;19921;-88
2023/07/06 00:17:10;;;;;;;;;;;;;;;23.16;32.66;101442.63;5064392;28;19932;-87
2023/07/06 00:19:36;;;;;;;;;;;;;;;23.07;32.66;101442.59;5062811;28;19916;-87
2023/07/06 00:22:01;;;;;;;;;;;;;;;23.00;32.91;101453.19;5063692;28;19924;-87
2023/07/06 00:24:26;;;;;;;;;;;;;;;22.92;33.07;101445.75;5056578;28;20400;-87
2023/07/06 00:26:52;;;;;;;;;;;;;;;22.85;32.84;101453.59;5060523;28;20499;-86
2023/07/06 00:29:20;;;;;;;;;;;;;;;22.80;32.94;101450.94;5065018;28;19925;-88
2023/07/06 00:31:52;;;;;;;;;;;;;;;22.73;32.69;101448.69;5066402;28;19917;-87
2023/07/06 00:34:18;;;;;;;;;;;;;;;22.71;33.34;101458.31;5064778;28;19916;-88
2023/07/06 00:36:43;;;;;;;;;;;;;;;22.60;33.45;101463.22;5063821;28;19924;-87
2023/07/06 00:39:12;;;;;;;;;;;;;;;22.53;33.33;101463.66;5062633;28;20335;-87
2023/07/06 00:41:38;;;;;;;;;;;;;;;22.46;33.44;101463.31;5067521;28;19930;-87
2023/07/06 00:44:04;;;;;;;;;;;;;;;22.39;33.81;101473.81;5064879;28;19916;-87
2023/07/06 00:46:29;;;;;;;;;;;;;;;;;;5067953;28;20366;-87
2023/07/06 00:48:56;;;;;;;;;;;;;;;22.29;34.01;101474.91;5063622;28;19923;-88
2023/07/06 00:51:27;;;;;;;;;;;;;;;22.27;33.96;101481.78;5067353;28;20058;-87
2023/07/06 00:54:01;;;;;;;;;;;;;;;22.20;34.33;101484.13;5067453;28;19949;-87
2023/07/06 00:56:28;;;;;;;;;;;;;;;22.10;34.15;101489.81;5064914;28;20453;-87
2023/07/06 00:58:54;;;;;;;;;;;;;;;21.98;34.30;101485.66;5061638;28;20384;-87
2023/07/06 01:01:22;;;;;;;;;;;;;;;21.91;34.46;101485.28;5067393;28;19938;-87
2023/07/06 01:03:52;;;;;;;;;;;;;;;21.87;34.55;101486.19;5074109;28;19960;-86
2023/07/06 01:06:24;;;;;;;;;;;;;;;21.84;34.63;101479.44;5067508;28;20455;-87
2023/07/06 01:08:50;;;;;;;;;;;;;;;21.84;34.76;101478.63;5062952;28;19931;-87
2023/07/06 01:11:15;;;;;;;;;;;;;;;21.81;34.51;101474.59;5064843;28;19917;-87
2023/07/06 01:13:51;;;;;;;;;;;;;;;21.81;34.64;101473.78;5078003;28;19974;-87
2023/07/06 01:16:18;;;;;;;;;;;;;;;21.78;34.71;101479.84;5070382;28;19960;-87
2023/07/06 01:18:53;;;;;;;;;;;;;;;21.75;34.88;101470.38;5070091;28;19924;-86
2023/07/06 01:21:32;;;;;;;;;;;;;;;21.70;34.96;101479.44;5069993;28;20230;-87
2023/07/06 01:24:17;;;;;;;;;;;;;;;21.65;34.91;101478.75;5066230;28;20393;-87
2023/07/06 01:26:58;;;;;;;;;;;;;;;21.63;35.16;101483.69;5071142;28;19982;-87
2023/07/06 01:29:30;;;;;;;;;;;;;;;21.60;35.43;101478.84;5063979;28;20039;-87
2023/07/06 01:32:01;;;;;;;;;;;;;;;21.54;35.41;101482.78;5079518;28;19917;-87
2023/07/06 01:34:41;;;;;;;;;;;;;;;21.45;35.35;101492.78;5065911;28;19916;-88
2023/07/06 01:37:22;;;;;;;;;;;;;;;21.38;35.48;101494.03;5064111;28;19923;-87
2023/07/06 01:39:48;;;;;;;;;;;;;;;21.35;35.46;101491.06;5064576;28;20453;-87
2023/07/06 01:42:25;;;;;;;;;;;;;;;21.34;35.56;101486.72;5071891;28;19970;-87
2023/07/06 01:44:51;;;;;;;;;;;;;;;21.31;35.64;101490.88;5065896;28;19920;-88
2023/07/06 01:47:18;;;;;;;;;;;;;;;21.29;35.66;101495.81;5061251;28;19932;-87
2023/07/06 01:49:44;;;;;;;;;;;;;;;21.23;35.92;101490.75;5073061;28;20292;-87
2023/07/06 01:52:24;;;;;;;;;;;;;;;21.13;36.16;101489.81;5071393;28;19916;-87
2023/07/06 01:55:02;;;;;;;;;;;;;;;21.03;35.98;101491.94;5069000;28;20079;-87
2023/07/06 01:57:31;;;;;;;;;;;;;;;20.95;36.09;101493.41;5058283;28;19920;-86
2023/07/06 01:59:58;;;;;;;;;;;;;;;20.87;36.37;101502.28;5070442;28;20474;-87
2023/07/06 02:02:24;;;;;;;;;;;;;;;20.80;36.39;101501.84;5064589;28;19929;-86
2023/07/06 02:04:51;;;;;;;;;;;;;;;20.75;36.81;101502.75;5073406;28;19921;-87
2023/07/06 02:07:20;;;;;;;;;;;;;;;20.71;36.66;101495.47;5062823;28;19923;-86
2023/07/06 02:09:46;;;;;;;;;;;;;;;20.71;36.36;101492.75;5066050;28;19924;-86
2023/07/06 02:12:13;;;;;;;;;;;;;;;20.74;36.39;101503.03;5064684;28;20015;-87
2023/07/06 02:14:39;;;;;;;;;;;;;;;20.74;36.48;101505.78;5060081;28;19924;-87
2023/07/06 02:17:06;;;;;;;;;;;;;;;20.75;36.67;101502.75;5069640;28;19920;-87
2023/07/06 02:19:33;;;;;;;;;;;;;;;20.78;36.62;101507.59;5059214;28;19916;-87
2023/07/06 02:21:58;;;;;;;;;;;;;;;20.79;36.60;101508.41;5071569;28;20018;-87
2023/07/06 02:24:23;;;;;;;;;;;;;;;20.80;36.50;101504.56;5065193;28;20016;-87
2023/07/06 02:26:49;;;;;;;;;;;;;;;20.79;36.46;101503.75;5070800;28;20395;-87
2023/07/06 02:29:14;;;;;;;;;;;;;;;20.79;36.65;101505.69;5062523;28;20368;-87
2023/07/06 02:31:40;;;;;;;;;;;;;;;20.78;36.97;101504.88;5058964;28;20044;-86
2023/07/06 02:34:05;;;;;;;;;;;;;;;20.69;36.94;101503.13;5068037;28;19920;-87
2023/07/06 02:36:31;;;;;;;;;;;;;;;20.62;37.14;101503.50;5062599;28;20453;-87
2023/07/06 02:38:57;;;;;;;;;;;;;;;20.56;37.41;101510.13;5064515;28;20035;-87
2023/07/06 02:41:22;;;;;;;;;;;;;;;20.52;37.36;101509.13;5058738;28;20010;-87
2023/07/06 02:43:47;;;;;;;;;;;;;;;20.50;37.11;101508.63;5064305;28;20014;-87
2023/07/06 02:46:19;;;;;;;;;;;;;;;20.48;37.16;101519.00;5068568;28;19923;-87
2023/07/06 02:48:45;;;;;;;;;;;;;;;20.44;37.29;101509.78;5064056;28;19922;-87
2023/07/06 02:51:10;;;;;;;;;;;;;;;20.38;37.41;101510.94;5062226;28;19917;-87
2023/07/06 02:53:36;;;;;;;;;;;;;;;20.33;37.54;101511.03;5060777;28;19924;-87
2023/07/06 02:56:03;;;;;;;;;;;;;;;20.26;37.63;101505.13;5063990;28;20331;-86
2023/07/06 02:58:28;;;;;;;;;;;;;;;20.20;37.70;101502.47;5058423;28;19920;-86
2023/07/06 03:00:54;;;;;;;;;;;;;;;20.19;37.66;101511.75;5065963;28;19920;-87
2023/07/06 03:03:20;;;;;;;;;;;;;;;20.21;37.50;101512.25;5056190;28;19928;-86
2023/07/06 03:05:46;;;;;;;;;;;;;;;20.21;37.74;101509.53;5066132;28;20407;-87
2023/07/06 03:08:11;;;;;;;;;;;;;;;20.21;37.76;101512.25;5058867;28;19921;-87
2023/07/06 03:10:38;;;;;;;;;;;;;;;20.21;37.94;101514.97;5062232;28;19927;-86
2023/07/06 03:13:06;;;;;;;;;;;;;;;20.21;38.03;101517.69;5062265;28;19927;-87
2023/07/06 03:15:31;;;;;;;;;;;;;;;20.22;38.07;101519.31;5057498;28;20011;-87
2023/07/06 03:17:57;;;;;;;;;;;;;;;20.24;37.82;101513.59;5068064;28;20411;-87
2023/07/06 03:20:23;;;;;;;;;;;;;;;20.27;37.92;101521.16;5059381;28;20303;-87
2023/07/06 03:22:52;;;;;;;;;;;;;;;20.32;38.06;101523.00;5061973;28;20016;-87
2023/07/06 03:25:26;;;;;;;;;;;;;;;20.35;37.77;101517.78;5061012;28;19965;-86
2023/07/06 03:27:52;;;;;;;;;;;;;;;20.37;38.27;101523.75;5059637;28;19993;-87
2023/07/06 03:30:19;;;;;;;;;;;;;;;20.38;38.23;101524.53;5064739;28;20411;-86
2023/07/06 03:32:45;;;;;;;;;;;;;;;20.36;38.59;101522.13;5060003;28;19916;-86
2023/07/06 03:35:11;;;;;;;;;;;;;;;20.33;38.72;101524.63;5065742;28;19980;-87
2023/07/06 03:37:37;;;;;;;;;;;;;;;20.29;39.11;101526.28;5055605;28;20372;-87
2023/07/06 03:40:05;;;;;;;;;;;;;;;20.29;38.96;101531.75;5063375;28;19916;-87
2023/07/06 03:42:30;;;;;;;;;;;;;;;20.29;38.97;101532.59;5060724;28;20032;-87
2023/07/06 03:44:56;;;;;;;;;;;;;;;20.33;38.59;101543.69;5061129;28;20277;-87
2023/07/06 03:47:26;;;;;;;;;;;;;;;20.38;39.01;101546.31;5059076;28;20363;-86
2023/07/06 03:49:52;;;;;;;;;;;;;;;20.41;38.99;101545.75;5060711;28;19923;-86
2023/07/06 03:52:18;;;;;;;;;;;;;;;20.42;38.93;101547.38;5058133;28;20288;-87
2023/07/06 03:54:44;;;;;;;;;;;;;;;20.44;38.84;101553.31;5062121;28;19924;-87
2023/07/06 03:57:11;;;;;;;;;;;;;;;20.50;38.85;101557.63;5063202;28;19920;-87
2023/07/06 03:59:38;;;;;;;;;;;;;;;20.53;39.08;101559.75;5057260;28;20392;-88
2023/07/06 04:02:04;;;;;;;;;;;;;;;20.58;39.55;101561.56;5059114;28;19920;-85
2023/07/06 04:04:29;;;;;;;;;;;;;;;20.58;39.06;101551.50;5064036;28;19921;-87
2023/07/06 04:06:55;;;;;;;;;;;;;;;20.64;39.16;101560.38;5061281;28;19944;-86
2023/07/06 04:09:21;;;;;;;;;;;;;;;20.69;38.90;101558.41;5060767;28;19974;-86
2023/07/06 04:11:47;;;;;;;;;;;;;;;20.75;39.39;101556.41;5061151;28;19921;-87
2023/07/06 04:14:13;;;;;;;;;;;;;;;20.82;39.13;101556.81;5066737;28;20182;-87
2023/07/06 04:16:40;;;;;;;;;;;;;;;20.88;39.29;101552.13;5057538;28;20156;-88
2023/07/06 04:19:06;;;;;;;;;;;;;;;20.96;39.59;101559.59;5058073;28;19955;-87
2023/07/06 04:21:31;;;;;;;;;;;;;;;21.05;39.37;101566.00;5061977;28;19924;-87
2023/07/06 04:23:57;;;;;;;;;;;;;;;21.17;39.14;101563.59;5058813;28;19927;-88
2023/07/06 04:26:22;;;;;;;;;;;;;;;21.22;39.42;101563.53;5060710;28;19919;-87
2023/07/06 04:28:48;;;;;;;;;;;;;;;21.29;39.73;101565.88;5059913;28;19916;-86
2023/07/06 04:31:17;;;;;;;;;;;;;;;21.36;39.55;101567.13;5062932;28;20383;-87
2023/07/06 04:33:48;;;;;;;;;;;;;;;21.45;39.48;101563.69;5059550;28;19931;-87
2023/07/06 04:36:17;;;;;;;;;;;;;;;21.50;39.32;101566.31;5063124;28;19916;-87
2023/07/06 04:38:43;;;;;;;;;;;;;;;21.58;39.26;101560.16;5062371;28;19924;-88
2023/07/06 04:41:09;;;;;;;;;;;;;;;21.67;39.14;101563.78;5069216;28;20338;-87
2023/07/06 04:43:34;;;;;;;;;;;;;;;21.74;39.26;101572.41;5061962;28;19920;-87
2023/07/06 04:45:59;;;;;;;;;;;;;;;21.82;39.06;101574.41;5056801;28;19920;-87
2023/07/06 04:48:26;;;;;;;;;;;;;;;21.88;38.87;101570.44;5060803;28;20277;-87
2023/07/06 04:50:52;;;;;;;;;;;;;;;21.94;39.31;101573.91;5058413;28;19942;-88
2023/07/06 04:53:18;;;;;;;;;;;;;;;22.01;39.66;101577.00;5061250;28;19961;-88
2023/07/06 04:55:45;;;;;;;;;;;;;;;22.09;39.08;101579.06;5061486;28;20666;-88
2023/07/06 04:58:11;;;;;;;;;;;;;;;22.19;39.56;101578.03;5058691;28;19917;-88
2023/07/06 05:00:39;;;;;;;;;;;;;;;22.26;38.91;101579.25;5056473;28;19923;-88
2023/07/06 05:03:08;;;;;;;;;;;;;;;22.37;39.27;101582.53;5060677;28;20007;-87
2023/07/06 05:05:42;;;;;;;;;;;;;;;22.46;38.75;101579.91;5061340;28;20047;-87
2023/07/06 05:08:08;;;;;;;;;;;;;;;22.58;38.81;101577.41;5061888;28;19930;-89
2023/07/06 05:10:36;;;;;;;;;;;;;;;22.66;38.84;101582.16;5057785;28;19924;-87
2023/07/06 05:13:02;;;;;;;;;;;;;;;22.78;38.69;101584.31;5061405;28;19923;-87
2023/07/06 05:15:28;;;;;;;;;;;;;;;22.89;38.60;101585.75;5064663;28;20291;-88
2023/07/06 05:17:54;;;;;;;;;;;;;;;22.96;38.48;101586.09;5073366;28;19916;-87
2023/07/06 05:20:20;;;;;;;;;;;;;;;23.04;38.25;101581.81;5073576;28;19966;-88
2023/07/06 05:22:48;;;;;;;;;;;;;;;23.06;38.45;101596.78;5064383;28;20362;-85
2023/07/06 05:25:14;;;;;;;;;;;;;;;23.07;38.44;101603.06;5066255;28;19943;-84
2023/07/06 05:27:39;;;;;;;;;;;;;;;23.08;38.67;101605.47;5065617;28;19925;-86
2023/07/06 05:30:05;;;;;;;;;;;;;;;23.18;38.35;101607.97;5068331;28;20391;-86
2023/07/06 05:32:31;;;;;;;;;;;;;;;23.20;38.78;101613.94;5062648;28;19917;-86
2023/07/06 05:34:56;;;;;;;;;;;;;;;23.25;38.42;101610.25;5067520;28;20287;-88
2023/07/06 05:37:21;;;;;;;;;;;;;;;23.37;38.20;101617.88;5067881;28;19921;-86
2023/07/06 05:39:47;;;;;;;;;;;;;;;23.42;38.30;101612.28;5059579;28;20353;-87
2023/07/06 05:42:13;;;;;;;;;;;;;;;23.51;37.90;101608.44;5063677;28;19981;-86
2023/07/06 05:44:38;;;;;;;;;;;;;;;23.63;37.72;101613.38;5053699;28;20790;-86
2023/07/06 05:47:04;;;;;;;;;;;;;;;23.76;37.75;101612.47;5064980;28;19943;-87
2023/07/06 05:49:29;;;;;;;;;;;;;;;23.88;37.52;101625.56;5062735;28;19920;-89
2023/07/06 05:51:54;;;;;;;;;;;;;;;23.99;37.48;101623.34;5063161;28;19921;-89
2023/07/06 05:54:20;;;;;;;;;;;;;;;24.18;37.05;101631.28;5064264;28;19924;-86
2023/07/06 05:56:46;;;;;;;;;;;;;;;24.25;37.10;101629.69;5061165;28;19916;-88
2023/07/06 05:59:12;;;;;;;;;;;;;;;24.38;37.07;101636.19;5069216;28;19916;-88
2023/07/06 06:01:37;;;;;;;;;;;;;;;24.46;36.91;101632.66;5062214;28;19923;-88
2023/07/06 06:04:05;;;;;;;;;;;;;;;24.54;36.90;101633.78;5060736;28;20518;-86
2023/07/06 06:06:46;;;;;;;;;;;;;;;24.62;36.45;101642.03;5063313;28;20281;-85
2023/07/06 06:09:11;;;;;;;;;;;;;;;24.60;36.56;101640.75;5070559;28;20042;-86
2023/07/06 06:11:36;;;;;;;;;;;;;;;24.70;36.60;101640.41;5063644;28;20019;-86
2023/07/06 06:14:01;;;;;;;;;;;;;;;24.72;36.18;101643.63;5063927;28;19978;-87
2023/07/06 06:16:27;;;;;;;;;;;;;;;24.71;36.04;101650.25;5070630;28;20014;-89
2023/07/06 06:18:52;;;;;;;;;;;;;;;24.83;36.27;101655.09;5067112;28;19917;-90
2023/07/06 06:21:17;;;;;;;;;;;;;;;25.03;35.92;101659.16;5073433;28;20373;-89
2023/07/06 06:23:43;;;;;;;;;;;;;;;25.19;35.67;101655.59;5068763;28;19973;-90
2023/07/06 06:26:08;;;;;;;;;;;;;;;25.26;35.38;101655.88;5069056;28;19920;-89
2023/07/06 06:28:33;;;;;;;;;;;;;;;25.33;35.23;101655.41;5062341;28;19917;-89
2023/07/06 06:30:59;;;;;;;;;;;;;;;25.39;35.01;101658.78;5070368;28;19928;-86
2023/07/06 06:33:24;;;;;;;;;;;;;;;25.33;34.72;101651.84;5069697;28;20456;-86
2023/07/06 06:35:50;;;;;;;;;;;;;;;25.29;34.70;101662.66;5061764;28;19917;-87
2023/07/06 06:38:16;;;;;;;;;;;;;;;25.27;34.81;101662.16;5063912;28;19920;-87
2023/07/06 06:40:41;;;;;;;;;;;;;;;25.27;34.56;101657.50;5063335;28;19920;-85
2023/07/06 06:43:07;;;;;;;;;;;;;;;25.29;34.72;101662.66;5064652;28;19921;-89
2023/07/06 06:45:32;;;;;;;;;;;;;;;25.32;34.68;101664.75;5062670;28;19931;-86
2023/07/06 06:47:58;;;;;;;;;;;;;;;25.38;34.46;101663.47;5066131;28;20366;-88
2023/07/06 06:50:23;;;;;;;;;;;;;;;25.41;34.34;101667.47;5065677;28;19916;-86
2023/07/06 06:52:49;;;;;;;;;;;;;;;25.54;34.64;101664.53;5063478;28;19920;-88
2023/07/06 06:55:15;;;;;;;;;;;;;;;25.70;34.37;101667.59;5070345;28;20541;-88
2023/07/06 06:57:40;;;;;;;;;;;;;;;25.85;33.85;101672.56;5067757;28;19924;-86
2023/07/06 07:00:09;;;;;;;;;;;;;;;25.88;33.78;101676.56;5064338;28;19952;-89
2023/07/06 07:02:35;;;;;;;;;;;;;;;25.89;33.99;101679.00;5064388;28;20048;-90
2023/07/06 07:05:00;;;;;;;;;;;;;;;25.97;33.80;101680.06;5067197;28;20517;-88
2023/07/06 07:07:26;;;;;;;;;;;;;;;26.13;33.75;101678.38;5063598;28;19916;-89
2023/07/06 07:09:51;;;;;;;;;;;;;;;26.26;33.40;101675.75;5063460;28;19924;-88
2023/07/06 07:12:18;;;;;;;;;;;;;;;26.34;33.22;101688.63;5069147;28;20468;-88
2023/07/06 07:14:43;;;;;;;;;;;;;;;26.34;32.81;101686.69;5063893;28;20597;-86
2023/07/06 07:17:10;;;;;;;;;;;;;;;26.44;33.08;101683.59;5059822;28;20010;-87
2023/07/06 07:19:35;;;;;;;;;;;;;;;26.59;32.94;101682.19;5065322;28;20169;-89
2023/07/06 07:22:01;;;;;;;;;;;;;;;26.75;32.83;101687.88;5065536;28;19967;-88
2023/07/06 07:24:29;;;;;;;;;;;;;;;26.90;32.62;101681.78;5065490;28;19946;-87
2023/07/06 07:26:54;;;;;;;;;;;;;;;27.01;32.47;101690.47;5066612;28;19916;-89
2023/07/06 07:29:20;;;;;;;;;;;;;;;27.10;31.88;101693.94;5070455;28;19917;-86
2023/07/06 07:31:49;;;;;;;;;;;;;;;27.16;32.01;101692.63;5066542;28;19917;-88
2023/07/06 07:34:15;;;;;;;;;;;;;;;27.30;32.35;101698.63;5062553;28;20362;-89
2023/07/06 07:36:40;;;;;;;;;;;;;;;27.51;31.93;101700.53;5059536;28;19946;-87
2023/07/06 07:39:05;;;;;;;;;;;;;;;27.61;31.83;101706.38;5069999;28;20428;-88
2023/07/06 07:41:31;;;;;;;;;;;;;;;27.63;30.81;101689.56;5071536;28;20414;-86
2023/07/06 07:43:58;;;;;;;;;;;;;;;27.69;31.28;101689.00;5062190;28;19982;-88
2023/07/06 07:46:24;;;;;;;;;;;;;;;27.85;31.10;101700.19;5059975;28;19931;-88
2023/07/06 07:48:50;;;;;;;;;;;;;;;27.92;30.92;101696.84;5066694;28;19924;-90
2023/07/06 07:51:17;;;;;;;;;;;;;;;27.97;31.01;101693.84;5066987;28;19916;-90
2023/07/06 07:53:44;;;;;;;;;;;;;;;28.10;30.76;101700.19;5068551;28;19928;-89
2023/07/06 07:56:10;;;;;;;;;;;;;;;28.15;30.26;101706.25;5071600;28;19924;-88
2023/07/06 07:58:37;;;;;;;;;;;;;;;28.10;30.79;101703.75;5063598;28;19931;-88
2023/07/06 08:01:06;;;;;;;;;;;;;;;28.15;30.42;101705.47;5067025;28;19974;-90
2023/07/06 08:03:32;;;;;;;;;;;;;;;28.22;29.95;101712.00;5065414;28;20014;-87
2023/07/06 08:05:58;;;;;;;;;;;;;;;28.22;30.10;101725.00;5059995;28;20016;-87
2023/07/06 08:08:25;;;;;;;;;;;;;;;28.33;30.40;101715.13;5069994;28;19924;-88
2023/07/06 08:10:53;;;;;;;;;;;;;;;28.48;30.35;101708.13;5058106;28;19981;-89
2023/07/06 08:13:20;;;;;;;;;;;;;;;28.69;30.31;101703.25;5065436;28;20439;-89
2023/07/06 08:15:46;;;;;;;;;;;;;;;28.88;29.80;101711.72;5067163;28;19966;-89
2023/07/06 08:18:11;;;;;;;;;;;;;;;29.05;29.69;101710.66;5060726;28;19982;-90
2023/07/06 08:20:37;;;;;;;;;;;;;;;29.14;28.72;101710.50;5061140;28;19917;-89
2023/07/06 08:23:04;;;;;;;;;;;;;;;29.23;29.44;101711.16;5058310;28;19927;-89
2023/07/06 08:25:37;;;;;;;;;;;;;;;29.23;29.50;101724.94;5061612;28;19923;-89
2023/07/06 08:28:03;;;;;;;;;;;;;;;29.14;29.55;101721.56;5058980;28;19927;-89
2023/07/06 08:30:28;;;;;;;;;;;;;;;29.14;29.04;101718.78;5065498;28;20148;-88
2023/07/06 08:32:54;;;;;;;;;;;;;;;29.16;29.21;101727.50;5062904;28;20372;-90
2023/07/06 08:35:19;;;;;;;;;;;;;;;29.25;28.31;101716.31;5067400;28;19920;-89
2023/07/06 08:37:45;;;;;;;;;;;;;;;29.29;29.17;101717.25;5063591;28;20881;-87
2023/07/06 08:40:14;;;;;;;;;;;;;;;29.43;28.69;101714.84;5071421;28;19963;-88
2023/07/06 08:42:41;;;;;;;;;;;;;;;29.53;28.13;101725.41;5058114;28;20384;-88
2023/07/06 08:45:13;;;;;;;;;;;;;;;29.62;28.38;101712.25;5063147;28;19932;-88
2023/07/06 08:47:39;;;;;;;;;;;;;;;29.61;28.56;101721.69;5069763;28;19920;-87
2023/07/06 08:50:08;;;;;;;;;;;;;;;29.51;27.88;101721.41;5063951;28;19921;-88
2023/07/06 08:52:34;;;;;;;;;;;;;;;29.42;27.73;101733.38;5071279;28;19916;-88
2023/07/06 08:54:59;;;;;;;;;;;;;;;29.48;27.92;101728.44;5067750;28;19931;-89
2023/07/06 08:57:26;;;;;;;;;;;;;;;29.54;27.97;101735.31;5068930;28;19925;-89
2023/07/06 08:59:54;;;;;;;;;;;;;;;29.56;28.06;101737.72;5069128;28;19924;-90
2023/07/06 09:02:27;;;;;;;;;;;;;;;29.63;28.28;101733.19;5075182;28;19916;-90
2023/07/06 09:04:55;;;;;;;;;;;;;;;29.69;28.39;101734.53;5074095;28;20005;-88
2023/07/06 09:07:34;;;;;;;;;;;;;;;29.76;28.09;101731.94;5069716;28;19921;-88
2023/07/06 09:10:00;;;;;;;;;;;;;;;29.90;27.70;101734.28;5068225;28;20007;-89
2023/07/06 09:12:33;;;;;;;;;;;;;;;30.05;26.62;101729.97;5065902;28;20093;-88
2023/07/06 09:14:59;;;;;;;;;;;;;;;30.15;27.06;101731.34;5058921;28;19951;-88
2023/07/06 09:17:26;;;;;;;;;;;;;;;30.13;27.28;101737.25;5063962;28;19920;-87
2023/07/06 09:19:54;;;;;;;;;;;;;;;30.12;27.39;101743.13;5062707;28;20506;-89
2023/07/06 09:22:22;;;;;;;;;;;;;;;30.19;27.68;101737.81;5067779;28;20395;-89
2023/07/06 09:24:47;;;;;;;;;;;;;;;30.16;27.07;101735.72;5067990;28;19920;-91
2023/07/06 09:27:18;;;;;;;;;;;;;;;30.19;27.23;101738.59;5067384;28;19947;-88
2023/07/06 09:29:44;;;;;;;;;;;;;;;30.38;27.33;101733.13;5063041;28;20009;-89
2023/07/06 09:32:09;;;;;;;;;;;;;;;30.56;26.69;101729.97;5066604;28;19921;-89
2023/07/06 09:34:35;;;;;;;;;;;;;;;30.66;26.09;101738.53;5071768;28;19924;-87
2023/07/06 09:37:02;;;;;;;;;;;;;;;30.78;26.60;101740.38;5069640;28;20424;-87
2023/07/06 09:39:27;;;;;;;;;;;;;;;30.88;26.67;101750.91;5067582;28;20015;-89
2023/07/06 09:41:53;;;;;;;;;;;;;;;30.96;26.59;101736.03;5067044;28;20003;-88
2023/07/06 09:44:29;;;;;;;;;;;;;;;31.08;26.14;101737.06;5064287;28;19920;-87
2023/07/06 09:46:55;;;;;;;;;;;;;;;31.17;26.38;101748.72;5063612;28;20972;-88
2023/07/06 09:49:21;;;;;;;;;;;;;;;31.24;26.04;101743.38;5064323;28;20300;-92
2023/07/06 09:51:46;;;;;;;;;;;;;;;31.33;25.90;101748.66;5061346;28;19920;-89
2023/07/06 09:54:15;;;;;;;;;;;;;;;31.42;25.87;101752.00;5067256;28;20061;-91
2023/07/06 09:56:40;;;;;;;;;;;;;;;31.51;25.95;101749.81;5061200;28;19925;-89
2023/07/06 09:59:06;;;;;;;;;;;;;;;31.55;25.58;101751.47;5065119;28;20297;-89
2023/07/06 10:01:31;;;;;;;;;;;;;;;31.54;25.83;101760.94;5060517;28;19920;-92
2023/07/06 10:03:56;;;;;;;;;;;;;;;31.56;25.79;101752.25;5060541;28;19931;-90
2023/07/06 10:06:22;;;;;;;;;;;;;;;31.69;25.55;101756.47;5066137;28;19927;-89
2023/07/06 10:08:54;;;;;;;;;;;;;;;31.76;25.05;101751.09;5061766;28;19932;-88
2023/07/06 10:11:25;;;;;;;;;;;;;;;31.70;25.29;101758.06;5060835;28;20419;-88
2023/07/06 10:14:20;;;;;;;;;;;;;;;31.57;24.68;101760.22;5059391;28;19927;-87
2023/07/06 10:16:46;;;;;;;;;;;;;;;31.30;25.58;101761.28;5044665;28;19920;-88
2023/07/06 10:19:26;;;;;;;;;;;;;;;31.07;25.20;101763.13;5064462;28;20327;-87
2023/07/06 10:22:01;;;;;;;;;;;;;;;30.94;25.32;101760.50;5062284;28;19920;-87
2023/07/06 10:24:32;;;;;;;;;;;;;;;31.02;25.27;101755.09;5054570;28;19928;-89
2023/07/06 10:26:59;;;;;;;;;;;;;;;31.11;24.91;101756.50;5059708;28;20048;-88
2023/07/06 10:29:46;;;;;;;;;;;;;;;31.22;25.19;101759.50;5057925;28;20261;-88
2023/07/06 10:32:17;;;;;;;;;;;;;;;31.29;24.02;101754.13;5065276;28;19956;-87
2023/07/06 10:34:55;;;;;;;;;;;;;;;31.37;24.96;101755.88;5066515;28;19928;-87
2023/07/06 10:37:24;;;;;;;;;;;;;;;31.35;24.98;101768.47;5063820;28;19920;-89
2023/07/06 10:39:58;;;;;;;;;;;;;;;31.23;25.09;101767.44;5066286;28;19924;-88
2023/07/06 10:42:25;;;;;;;;;;;;;;;31.14;25.01;101766.84;5062642;28;19920;-88
2023/07/06 10:44:58;;;;;;;;;;;;;;;31.36;25.28;101770.88;5070054;28;20172;-86
2023/07/06 10:47:33;;;;;;;;;;;;;;;31.50;25.18;101765.63;5062770;28;19920;-87
2023/07/06 10:50:31;;;;;;;;;;;;;;;31.41;24.58;101762.25;5072755;28;19930;-89
2023/07/06 10:53:01;;;;;;;;;;;;;;;31.43;24.99;101765.50;5061328;28;19948;-87
2023/07/06 10:55:28;;;;;;;;;;;;;;;31.44;24.85;101763.53;5059520;28;19927;-90
2023/07/06 10:57:57;;;;;;;;;;;;;;;31.50;24.75;101762.06;5065576;28;20401;-88
2023/07/06 11:00:30;;;;;;;;;;;;;;;31.51;24.18;101771.97;5072111;28;19928;-88
2023/07/06 11:02:56;;;;;;;;;;;;;;;31.36;24.16;101764.53;5061679;28;19929;-87
2023/07/06 11:05:32;;;;;;;;;;;;;;;31.44;24.72;101772.63;5067050;28;20410;-88
2023/07/06 11:08:02;;;;;;;;;;;;;;;31.60;24.40;101768.94;5065778;28;19921;-89
2023/07/06 11:10:27;;;;;;;;;;;;;;;31.71;24.28;101773.53;5070860;28;19920;-87
2023/07/06 11:12:57;;;;;;;;;;;;;;;31.58;23.77;101766.53;5067118;28;19913;-88
2023/07/06 11:15:24;;;;;;;;;;;;;;;31.31;24.04;101768.41;5065270;28;19973;-87
2023/07/06 11:17:52;;;;;;;;;;;;;;;31.19;24.24;101771.31;5063130;28;20422;-88
2023/07/06 11:20:22;;;;;;;;;;;;;;;31.12;24.72;101777.50;5066367;28;20293;-88
2023/07/06 11:22:50;;;;;;;;;;;;;;;31.10;24.61;101765.19;5059015;28;19971;-88
2023/07/06 11:25:15;;;;;;;;;;;;;;;31.07;24.51;101779.75;5062449;28;19917;-88
2023/07/06 11:27:44;;;;;;;;;;;;;;;30.97;24.61;101786.66;5064164;28;19928;-87
2023/07/06 11:30:15;;;;;;;;;;;;;;;30.96;24.43;101790.56;5068655;28;19920;-88
2023/07/06 11:32:47;;;;;;;;;;;;;;;31.15;24.66;101787.81;5067780;28;20388;-91
2023/07/06 11:35:16;;;;;;;;;;;;;;;31.51;24.62;101788.59;5057293;28;19997;-90
2023/07/06 11:37:41;;;;;;;;;;;;;;;31.84;23.60;101779.75;5065254;28;20372;-91
2023/07/06 11:40:17;;;;;;;;;;;;;;;32.08;23.99;101790.44;5065345;28;19916;-88
2023/07/06 11:43:02;;;;;;;;;;;;;;;32.23;23.94;101785.16;5074426;28;19986;-88
2023/07/06 11:45:50;;;;;;;;;;;;;;;32.22;23.74;101794.66;5068025;28;19920;-90
2023/07/06 11:48:18;;;;;;;;;;;;;;;32.20;23.28;101783.13;5068676;28;19912;-89
2023/07/06 11:50:43;;;;;;;;;;;;;;;32.12;23.73;101784.97;5066152;28;19952;-89
2023/07/06 11:53:29;;;;;;;;;;;;;;;31.95;23.78;101780.72;5072599;28;19967;-87
2023/07/06 11:56:04;;;;;;;;;;;;;;;31.87;24.02;101790.09;5062444;28;19917;-90
2023/07/06 11:58:45;;;;;;;;;;;;;;;31.78;23.32;101795.06;5068866;28;19921;-93
2023/07/06 12:01:21;;;;;;;;;;;;;;;31.68;24.13;101787.31;5072756;28;19916;-92
2023/07/06 12:03:47;;;;;;;;;;;;;;;31.63;23.87;101795.94;5062011;28;19920;-90
2023/07/06 12:06:19;;;;;;;;;;;;;;;31.51;24.31;101797.69;5065186;28;19970;-90
2023/07/06 12:08:45;;;;;;;;;;;;;;;31.48;24.36;101798.44;5067008;28;20430;-91
2023/07/06 12:11:10;;;;;;;;;;;;;;;31.38;23.85;101796.22;5068382;28;19923;-92
2023/07/06 12:13:39;;;;;;;;;;;;;;;31.30;24.33;101799.22;5067863;28;19924;-91
2023/07/06 12:16:13;;;;;;;;;;;;;;;31.17;24.22;101804.91;5066705;28;19962;-91
2023/07/06 12:18:39;;;;;;;;;;;;;;;31.11;24.48;101800.00;5059051;28;19928;-90
2023/07/06 12:21:05;;;;;;;;;;;;;;;31.13;24.59;101797.66;5068195;28;19922;-91
2023/07/06 12:23:31;;;;;;;;;;;;;;;31.25;24.31;101808.63;5069627;28;19920;-90
2023/07/06 12:25:57;;;;;;;;;;;;;;;31.32;24.47;101797.69;5075424;28;19919;-91
2023/07/06 12:28:31;;;;;;;;;;;;;;;31.38;24.67;101798.19;5073764;28;19916;-90
2023/07/06 12:31:03;;;;;;;;;;;;;;;31.47;24.47;101801.56;5072082;28;19920;-92
2023/07/06 12:33:29;;;;;;;;;;;;;;;31.61;24.48;101803.81;5081329;28;20388;-90
2023/07/06 12:35:55;;;;;;;;;;;;;;;31.68;24.66;101809.47;5079362;28;19920;-92
2023/07/06 12:38:22;;;;;;;;;;;;;;;31.72;24.46;101804.81;5071731;28;20027;-90
2023/07/06 12:40:48;;;;;;;;;;;;;;;31.71;24.34;101804.00;5069727;28;20011;-90
2023/07/06 12:43:23;;;;;;;;;;;;;;;31.72;24.24;101804.81;5068605;28;19947;-92